Historique des mesures à Cassis (13260), France
Quotidien Résumé Aout 20, 2017 Unités:  Métrique    US   Métrique/US
« Précédent (Jour)
Suivant (Jour) »
Quotidien Hebdomadaire Mensuel Annuel Période au choix
  Maximum: Minimum: Moyenne:
Température: TemperatureC °C 19.6 °C 23.2 °C
Point de rosée: DewpointC °C 0.9 °C 7.3 °C
Humidité: Humidity % 21 % 34 %
Vitesse du vent: 0 km/h 5.6 km/h 20.8 km/h
Rafales: 0 km/h - -
Vent:- - SSW
Pression: PressurehPa hPa 1010.4 hPa -
Précipitations: 0.0 mm    
Historical Graphs
 
 
Mesures pour : Aout 20, 2017
Heure Temperature Point de rosée Pression Vent Vitesse du vent Rafales Humidité Pluie (par heure) Conditions
TemperatureC °C DewpointC °C PressurehPa hPa Calm     Humidity % HourlyPrecipMM mm SoftwareType W/m2
00:11 24.8 °C 0.9 °C 1011.4 hPa NNW 25.4 km/h 48.6 km/h 21 % 0.0 mm open2300-1.11 W/m2
01:11 23.2 °C 3.6 °C 1011.7 hPa North 9.3 km/h 17.4 km/h 28 % 0.0 mm open2300-1.11 W/m2
02:11 22.3 °C 4.3 °C 1011.1 hPa NNE 20.9 km/h 54.4 km/h 31 % 0.0 mm open2300-1.11 W/m2
03:11 21.8 °C 5.6 °C 1010.7 hPa North 31.9 km/h 75.8 km/h 35 % 0.0 mm open2300-1.11 W/m2
04:11 20.9 °C 6.8 °C 1010.4 hPa NNW 40.7 km/h 41.2 km/h 40 % 0.0 mm open2300-1.11 W/m2
06:11 19.8 °C 6.2 °C 1010.7 hPa NW 10.9 km/h 16.9 km/h 41 % 0.0 mm open2300-1.11 W/m2
07:11 19.6 °C 6.3 °C 1011.1 hPa North 14 km/h 19.6 km/h 42 % 0.0 mm open2300-1.11 W/m2
08:11 19.9 °C 6.9 °C 1012.1 hPa WNW 8 km/h 23.8 km/h 43 % 0.0 mm open2300-1.11 W/m2
09:11 21.1 °C 7.3 °C 1012.8 hPa SSE 8 km/h 16.3 km/h 41 % 0.0 mm open2300-1.11 W/m2
10:11 22.1 °C 7.5 °C 1013.1 hPa North 11.6 km/h 13.2 km/h 39 % 0.0 mm open2300-1.11 W/m2
11:11 23.9 °C 8.2 °C 1013.4 hPa NW 24.3 km/h 33.6 km/h 37 % 0.0 mm open2300-1.11 W/m2
12:11 25.6 °C 8.9 °C 1013.1 hPa NW 37.5 km/h 42.2 km/h 35 % 0.0 mm open2300-1.11 W/m2
13:11 26.6 °C 9.3 °C 1012.8 hPa NNE 41.7 km/h 41.7 km/h 34 % 0.0 mm open2300-1.11 W/m2
14:11 27.4 °C 9.2 °C 1012.4 hPa WNW 11.6 km/h 42.2 km/h 32 % 0.0 mm open2300-1.11 W/m2
15:11 27.3 °C 10.0 °C 1012.4 hPa NW 47.3 km/h 47.3 km/h 34 % 0.0 mm open2300-1.11 W/m2
16:11 28.2 °C 10.3 °C 1012.1 hPa WNW 42.6 km/h 42.6 km/h 33 % 0.0 mm open2300-1.11 W/m2
17:11 28.4 °C 9.6 °C 1012.1 hPa NW 24.8 km/h 42.6 km/h 31 % 0.0 mm open2300-1.11 W/m2
18:11 28.3 °C 9.5 °C 1012.1 hPa NW 24.8 km/h 41.2 km/h 31 % 0.0 mm open2300-1.11 W/m2
19:11 28.1 °C 9.3 °C 1011.7 hPa NNE 26.7 km/h 37 km/h 31 % 0.0 mm open2300-1.11 W/m2
20:11 26.5 °C 8.8 °C 1012.1 hPa NE 14 km/h 16.9 km/h 33 % 0.0 mm open2300-1.11 W/m2
21:11 25.1 °C 9.3 °C 1012.4 hPa NNE 5.6 km/h 26.7 km/h 37 % 0.0 mm open2300-1.11 W/m2
22:11 23.9 °C 9.1 °C 1012.8 hPa NNW 8 km/h 8 km/h 39 % 0.0 mm open2300-1.11 W/m2
23:11 23.1 °C 9.1 °C 1013.1 hPa NW 9.3 km/h 10.3 km/h 41 % 0.0 mm open2300-1.11 W/m2
Observations météo à CASSIS
WU-History script by Weather Underground - 1 mb